X  Chiuso Dati meteorologici dell'aviazione (METAR)     EIDW Dublin Airport
Temperatura
16°C Temperatura
15°C Punto di rugiada
94% Umidità



Vento
6 MPH
10 KM/O
3 M/S
5 KTS



350°
N
Condizioni attuali

Chiaro Chiaro
Pressione 1008.92 (hPa) - 29.79 (inHg)
Visibilità 6.2 (miglio) - 10 (km)
Aeroporto
Codice-Aeroporto EIDW

Posizione: Dublin Airport
Distanza: 17 (mi)

Metar:
EIDW 140630Z 35005KT 310V030 CAVOK 16/15 Q1009 NOSIG

Ore: 14-08-2022 07:30 IST